Time,TemperatureF,DewpointF,PressureIn,WindDirection,WindDirectionDegrees,WindSpeedMPH,WindSpeedGustMPH,Humidity,HourlyPrecipIn,Conditions,Clouds,dailyrainin,SoftwareType,DateUTC
2013-06-14 00:01:00,79.0,73.5,29.98,South,179,0.0,0.0,83,0.00,,---,0.00,VWS V13.01,2013-06-14 04:01:00,
2013-06-14 00:04:00,78.9,73.4,29.98,South,179,0.0,0.0,83,0.00,,---,0.00,VWS V13.01,2013-06-14 04:04:00,
2013-06-14 00:05:00,78.9,73.4,29.98,South,179,0.0,0.0,83,0.00,,---,0.00,VWS V13.01,2013-06-14 04:05:00,
2013-06-14 00:10:00,78.8,73.4,29.98,South,187,0.0,0.0,84,0.00,,---,0.00,VWS V13.01,2013-06-14 04:10:00,
2013-06-14 00:15:00,78.9,73.6,29.98,SSW,211,0.4,0.9,84,0.00,,---,0.00,VWS V13.01,2013-06-14 04:15:00,
2013-06-14 00:20:00,78.8,73.5,29.98,SW,218,0.0,0.4,84,0.00,,---,0.00,VWS V13.01,2013-06-14 04:20:00,
2013-06-14 00:25:00,78.8,73.6,29.98,South,179,0.0,0.0,84,0.00,,---,0.00,VWS V13.01,2013-06-14 04:25:00,
2013-06-14 00:30:00,78.8,73.6,29.99,West,262,1.2,1.7,84,0.00,,---,0.00,VWS V13.01,2013-06-14 04:30:00,
2013-06-14 00:35:00,78.9,73.7,29.99,WSW,239,1.8,2.1,84,0.00,,---,0.00,VWS V13.01,2013-06-14 04:35:00,
2013-06-14 00:40:00,78.8,73.6,29.99,SSW,210,0.0,0.7,84,0.00,,---,0.00,VWS V13.01,2013-06-14 04:40:00,
2013-06-14 00:45:00,78.8,73.7,29.98,SSW,210,0.0,0.0,84,0.00,,---,0.00,VWS V13.01,2013-06-14 04:45:00,
2013-06-14 00:50:00,78.3,73.2,29.98,SSW,210,0.0,0.0,84,0.00,,---,0.00,VWS V13.01,2013-06-14 04:50:00,
2013-06-14 00:55:00,78.4,73.3,29.98,South,190,0.0,1.5,84,0.00,,---,0.00,VWS V13.01,2013-06-14 04:55:00,
2013-06-14 01:00:00,78.3,73.3,29.98,SE,138,0.4,1.2,85,0.00,,---,0.00,VWS V13.01,2013-06-14 05:00:00,
2013-06-14 01:05:00,78.2,73.3,29.98,SE,138,0.0,0.0,85,0.00,,---,0.00,VWS V13.01,2013-06-14 05:05:00,
2013-06-14 01:10:00,78.1,73.2,29.97,SE,138,0.0,0.0,85,0.00,,---,0.00,VWS V13.01,2013-06-14 05:10:00,
2013-06-14 01:15:00,78.2,73.3,29.97,SE,138,0.0,0.0,85,0.00,,---,0.00,VWS V13.01,2013-06-14 05:15:00,
2013-06-14 01:21:00,78.0,73.1,29.97,South,191,1.1,2.9,85,0.00,,---,0.00,VWS V13.01,2013-06-14 05:21:00,
2013-06-14 01:26:00,78.2,73.3,29.96,SSW,193,1.9,2.7,85,0.00,,---,0.00,VWS V13.01,2013-06-14 05:26:00,
2013-06-14 01:31:00,78.0,73.0,29.96,SSW,201,0.0,0.0,85,0.00,,---,0.00,VWS V13.01,2013-06-14 05:31:00,
2013-06-14 01:36:00,78.1,73.1,29.96,North,353,1.1,1.3,85,0.00,,---,0.00,VWS V13.01,2013-06-14 05:36:00,
2013-06-14 01:41:00,78.1,73.2,29.96,NW,325,0.0,0.0,85,0.00,,---,0.00,VWS V13.01,2013-06-14 05:41:00,
2013-06-14 01:46:00,77.8,73.1,29.96,NW,325,0.0,0.0,85,0.00,,---,0.00,VWS V13.01,2013-06-14 05:46:00,
2013-06-14 01:51:00,77.7,73.0,29.96,NW,325,0.0,0.0,86,0.00,,---,0.00,VWS V13.01,2013-06-14 05:51:00,
2013-06-14 01:56:00,77.8,73.2,29.96,NW,325,0.0,0.0,86,0.00,,---,0.00,VWS V13.01,2013-06-14 05:56:00,
2013-06-14 02:01:00,77.7,73.3,29.96,NW,325,0.0,0.0,86,0.00,,---,0.00,VWS V13.01,2013-06-14 06:01:00,
2013-06-14 02:06:00,77.3,73.0,29.96,SW,217,1.8,3.0,87,0.00,,---,0.00,VWS V13.01,2013-06-14 06:06:00,
2013-06-14 02:11:00,77.4,73.2,29.96,South,169,0.8,0.8,87,0.00,,---,0.00,VWS V13.01,2013-06-14 06:11:00,
2013-06-14 02:16:00,77.3,73.1,29.96,WSW,240,2.2,2.7,87,0.00,,---,0.00,VWS V13.01,2013-06-14 06:16:00,
2013-06-14 02:21:00,77.5,73.3,29.96,SSW,198,0.2,0.7,87,0.00,,---,0.00,VWS V13.01,2013-06-14 06:21:00,
2013-06-14 02:26:00,77.5,73.3,29.96,SSW,198,0.0,0.0,87,0.00,,---,0.00,VWS V13.01,2013-06-14 06:26:00,
2013-06-14 02:31:00,77.7,73.5,29.96,NW,308,0.0,0.0,87,0.00,,---,0.00,VWS V13.01,2013-06-14 06:31:00,
2013-06-14 02:36:00,77.5,73.4,29.96,NW,308,0.0,0.0,87,0.00,,---,0.00,VWS V13.01,2013-06-14 06:36:00,
2013-06-14 02:41:00,77.5,73.4,29.96,West,280,0.0,0.0,87,0.00,,---,0.00,VWS V13.01,2013-06-14 06:41:00,
2013-06-14 02:46:00,77.5,73.4,29.96,SW,231,0.6,0.6,87,0.00,,---,0.00,VWS V13.01,2013-06-14 06:46:00,
2013-06-14 02:51:00,77.8,73.7,29.96,NW,318,0.5,1.2,87,0.00,,---,0.00,VWS V13.01,2013-06-14 06:51:00,
2013-06-14 02:56:00,77.8,73.8,29.96,WNW,290,1.6,3.0,88,0.00,,---,0.00,VWS V13.01,2013-06-14 06:56:00,
2013-06-14 03:01:00,77.7,73.7,29.96,West,266,0.0,0.0,87,0.00,,---,0.00,VWS V13.01,2013-06-14 07:01:00,
2013-06-14 03:06:00,77.7,73.7,29.95,West,271,2.1,2.7,88,0.00,,---,0.00,VWS V13.01,2013-06-14 07:06:00,
2013-06-14 03:11:00,77.7,73.7,29.95,SW,231,0.0,0.0,88,0.00,,---,0.00,VWS V13.01,2013-06-14 07:11:00,
2013-06-14 03:16:00,77.5,73.6,29.95,WSW,242,0.0,0.0,88,0.00,,---,0.00,VWS V13.01,2013-06-14 07:16:00,
2013-06-14 03:21:00,77.4,73.5,29.95,West,263,0.0,0.0,88,0.00,,---,0.00,VWS V13.01,2013-06-14 07:21:00,
2013-06-14 03:26:00,77.4,73.6,29.95,WSW,239,0.7,1.8,88,0.00,,---,0.00,VWS V13.01,2013-06-14 07:26:00,
2013-06-14 03:31:00,77.3,73.5,29.95,WSW,255,0.6,0.6,88,0.00,,---,0.00,VWS V13.01,2013-06-14 07:31:00,
2013-06-14 03:36:00,77.1,73.4,29.95,SW,232,1.1,1.3,88,0.00,,---,0.00,VWS V13.01,2013-06-14 07:36:00,
2013-06-14 03:41:00,77.3,73.6,29.94,South,181,0.0,0.7,88,0.00,,---,0.00,VWS V13.01,2013-06-14 07:41:00,
2013-06-14 03:46:00,77.1,73.5,29.94,South,181,0.0,0.0,89,0.00,,---,0.00,VWS V13.01,2013-06-14 07:46:00,
2013-06-14 03:51:00,77.1,73.6,29.94,SW,229,0.5,1.1,89,0.00,,---,0.00,VWS V13.01,2013-06-14 07:51:00,
2013-06-14 03:56:00,76.9,73.4,29.94,SW,229,0.0,0.0,89,0.00,,---,0.00,VWS V13.01,2013-06-14 07:56:00,
2013-06-14 04:01:00,76.9,73.5,29.94,South,173,0.0,2.1,89,0.00,,---,0.00,VWS V13.01,2013-06-14 08:01:00,
2013-06-14 04:06:00,76.8,73.4,29.93,South,173,0.0,0.0,89,0.00,,---,0.00,VWS V13.01,2013-06-14 08:06:00,
2013-06-14 04:11:00,76.7,73.4,29.94,SW,232,1.7,2.4,90,0.00,,---,0.00,VWS V13.01,2013-06-14 08:11:00,
2013-06-14 04:16:00,76.7,73.5,29.94,SSW,205,0.0,0.0,90,0.00,,---,0.00,VWS V13.01,2013-06-14 08:16:00,
2013-06-14 04:21:00,76.7,73.6,29.93,WSW,246,1.8,2.5,90,0.00,,---,0.00,VWS V13.01,2013-06-14 08:21:00,
2013-06-14 04:27:00,76.7,73.7,29.93,WSW,239,1.0,1.9,90,0.00,,---,0.00,VWS V13.01,2013-06-14 08:27:00,
2013-06-14 04:32:00,76.7,73.7,29.93,WSW,238,0.0,0.0,90,0.00,,---,0.00,VWS V13.01,2013-06-14 08:32:00,
2013-06-14 04:37:00,76.3,73.3,29.93,SW,235,0.3,1.6,90,0.00,,---,0.00,VWS V13.01,2013-06-14 08:37:00,
2013-06-14 04:42:00,76.4,73.4,29.92,WSW,239,0.0,0.0,91,0.00,,---,0.00,VWS V13.01,2013-06-14 08:42:00,
2013-06-14 04:47:00,76.4,73.5,29.92,WSW,239,0.0,0.0,91,0.00,,---,0.00,VWS V13.01,2013-06-14 08:47:00,
2013-06-14 04:52:00,76.2,73.3,29.92,WSW,248,0.0,0.0,91,0.00,,---,0.00,VWS V13.01,2013-06-14 08:52:00,
2013-06-14 04:57:00,76.3,73.5,29.92,WNW,287,0.0,0.6,91,0.00,,---,0.00,VWS V13.01,2013-06-14 08:57:00,
2013-06-14 05:02:00,76.3,73.5,29.92,WSW,240,1.7,1.7,91,0.00,,---,0.00,VWS V13.01,2013-06-14 09:02:00,
2013-06-14 05:07:00,76.1,73.3,29.92,SSW,212,0.0,0.0,91,0.00,,---,0.00,VWS V13.01,2013-06-14 09:07:00,
2013-06-14 05:12:00,75.9,73.2,29.91,SSW,212,0.0,0.0,91,0.00,,---,0.00,VWS V13.01,2013-06-14 09:12:00,
2013-06-14 05:17:00,75.9,73.2,29.92,SSW,212,0.0,0.0,91,0.00,,---,0.00,VWS V13.01,2013-06-14 09:17:00,
2013-06-14 05:22:00,76.1,73.5,29.92,SW,226,0.0,0.0,92,0.00,,---,0.00,VWS V13.01,2013-06-14 09:22:00,
2013-06-14 05:27:00,75.9,73.3,29.92,WSW,257,0.0,0.0,92,0.00,,---,0.00,VWS V13.01,2013-06-14 09:27:00,
2013-06-14 05:32:00,75.8,73.2,29.92,WSW,255,0.0,0.2,92,0.00,,---,0.00,VWS V13.01,2013-06-14 09:32:00,
2013-06-14 05:37:00,75.7,73.2,29.92,WSW,255,0.0,0.0,92,0.00,,---,0.00,VWS V13.01,2013-06-14 09:37:00,
2013-06-14 05:42:00,75.7,73.2,29.92,WSW,255,0.0,0.0,92,0.00,,---,0.00,VWS V13.01,2013-06-14 09:42:00,
2013-06-14 05:47:00,75.8,73.3,29.92,WSW,255,0.0,0.0,92,0.00,,---,0.00,VWS V13.01,2013-06-14 09:47:00,
2013-06-14 05:52:00,75.6,73.2,29.92,WSW,255,0.0,0.0,92,0.00,,---,0.00,VWS V13.01,2013-06-14 09:52:00,
2013-06-14 05:57:00,75.7,73.3,29.92,WSW,255,0.0,0.0,92,0.00,,---,0.00,VWS V13.01,2013-06-14 09:57:00,
2013-06-14 06:02:00,75.6,73.2,29.92,WSW,255,0.0,0.0,92,0.00,,---,0.00,VWS V13.01,2013-06-14 10:02:00,
2013-06-14 06:07:00,75.5,73.1,29.92,WSW,255,0.0,0.0,92,0.00,,---,0.00,VWS V13.01,2013-06-14 10:07:00,
2013-06-14 06:12:00,75.5,73.1,29.92,WSW,255,0.0,0.0,92,0.00,,---,0.00,VWS V13.01,2013-06-14 10:12:00,
2013-06-14 06:17:00,75.3,72.9,29.92,WSW,255,0.0,0.0,92,0.00,,---,0.00,VWS V13.01,2013-06-14 10:17:00,
2013-06-14 06:22:00,75.2,72.8,29.93,WSW,255,0.0,0.0,92,0.00,,---,0.00,VWS V13.01,2013-06-14 10:22:00,
2013-06-14 06:27:00,75.3,72.9,29.93,WSW,255,0.0,0.0,92,0.00,,---,0.00,VWS V13.01,2013-06-14 10:27:00,
2013-06-14 06:32:00,75.2,72.8,29.93,WSW,255,0.0,0.0,92,0.00,,---,0.00,VWS V13.01,2013-06-14 10:32:00,
2013-06-14 06:37:00,75.2,72.8,29.93,West,259,2.4,2.4,92,0.00,,---,0.00,VWS V13.01,2013-06-14 10:37:00,
2013-06-14 06:42:00,75.3,72.8,29.93,NW,305,0.0,0.0,92,0.00,,---,0.00,VWS V13.01,2013-06-14 10:42:00,
2013-06-14 06:47:00,75.2,72.7,29.93,North,0,1.1,2.7,92,0.00,,---,0.00,VWS V13.01,2013-06-14 10:47:00,
2013-06-14 06:52:00,75.3,72.8,29.93,NW,307,0.0,0.0,92,0.00,,---,0.00,VWS V13.01,2013-06-14 10:52:00,
2013-06-14 06:57:00,75.3,72.7,29.93,WNW,302,0.6,1.8,92,0.00,,---,0.00,VWS V13.01,2013-06-14 10:57:00,
2013-06-14 07:02:00,75.6,72.8,29.93,NW,315,2.1,5.0,91,0.00,,---,0.00,VWS V13.01,2013-06-14 11:02:00,
2013-06-14 07:07:00,75.6,72.7,29.93,NW,322,1.7,2.4,91,0.00,,---,0.00,VWS V13.01,2013-06-14 11:07:00,
2013-06-14 07:12:00,76.0,72.9,29.93,NW,325,3.2,3.2,90,0.00,,---,0.00,VWS V13.01,2013-06-14 11:12:00,
2013-06-14 07:17:00,76.2,72.7,29.94,NW,316,4.4,4.4,89,0.00,,---,0.00,VWS V13.01,2013-06-14 11:17:00,
2013-06-14 07:22:00,76.4,72.6,29.94,NW,325,2.4,3.1,88,0.00,,---,0.00,VWS V13.01,2013-06-14 11:22:00,
2013-06-14 07:27:00,76.7,72.5,29.94,NNW,329,0.8,1.2,87,0.00,,---,0.00,VWS V13.01,2013-06-14 11:27:00,
2013-06-14 07:32:00,77.1,72.6,29.94,WNW,284,1.2,2.4,86,0.00,,---,0.00,VWS V13.01,2013-06-14 11:32:00,
2013-06-14 07:37:00,77.7,73.0,29.94,West,264,0.5,1.2,86,0.00,,---,0.00,VWS V13.01,2013-06-14 11:37:00,
2013-06-14 07:42:00,78.0,73.1,29.94,West,259,0.6,2.2,85,0.00,,---,0.00,VWS V13.01,2013-06-14 11:42:00,
2013-06-14 07:47:00,78.3,72.8,29.94,NW,319,3.6,4.7,83,0.00,,---,0.00,VWS V13.01,2013-06-14 11:47:00,
2013-06-14 07:53:00,78.4,72.8,29.94,North,3,1.4,3.1,83,0.00,,---,0.00,VWS V13.01,2013-06-14 11:53:00,
2013-06-14 07:58:00,79.0,73.2,29.94,West,269,0.0,2.4,82,0.00,,---,0.00,VWS V13.01,2013-06-14 11:58:00,
2013-06-14 08:03:00,79.2,73.4,29.95,WSW,240,0.0,0.4,82,0.00,,---,0.00,VWS V13.01,2013-06-14 12:03:00,
2013-06-14 08:08:00,79.5,73.3,29.95,West,263,2.5,4.5,81,0.00,,---,0.00,VWS V13.01,2013-06-14 12:08:00,
2013-06-14 08:13:00,79.4,73.3,29.95,WSW,238,2.2,2.2,82,0.00,,---,0.00,VWS V13.01,2013-06-14 12:13:00,
2013-06-14 08:18:00,80.0,73.7,29.95,SW,235,1.9,4.5,81,0.00,,---,0.00,VWS V13.01,2013-06-14 12:18:00,
2013-06-14 08:23:00,80.3,73.6,29.95,West,269,4.4,6.0,80,0.00,,---,0.00,VWS V13.01,2013-06-14 12:23:00,
2013-06-14 08:28:00,80.4,73.5,29.95,SW,229,2.1,5.3,80,0.00,,---,0.00,VWS V13.01,2013-06-14 12:28:00,
2013-06-14 08:33:00,80.6,73.6,29.95,West,263,5.0,5.0,79,0.00,,---,0.00,VWS V13.01,2013-06-14 12:33:00,
2013-06-14 08:38:00,80.7,73.6,29.95,SSW,197,1.9,4.5,79,0.00,,---,0.00,VWS V13.01,2013-06-14 12:38:00,
2013-06-14 08:43:00,81.2,73.5,29.95,SSW,198,2.9,6.5,77,0.00,,---,0.00,VWS V13.01,2013-06-14 12:43:00,
2013-06-14 08:48:00,81.4,73.7,29.95,WNW,287,3.7,4.6,78,0.00,,---,0.00,VWS V13.01,2013-06-14 12:48:00,
2013-06-14 08:53:00,81.5,73.4,29.95,West,276,6.3,8.8,77,0.00,,---,0.00,VWS V13.01,2013-06-14 12:53:00,
2013-06-14 08:58:00,81.5,73.6,29.95,South,180,4.8,5.0,77,0.00,,---,0.00,VWS V13.01,2013-06-14 12:58:00,
2013-06-14 09:03:00,81.7,73.8,29.95,WSW,249,4.2,4.2,77,0.00,,---,0.00,VWS V13.01,2013-06-14 13:03:00,
2013-06-14 09:08:00,82.3,73.8,29.95,SW,217,7.0,7.8,75,0.00,,---,0.00,VWS V13.01,2013-06-14 13:08:00,
2013-06-14 09:13:00,82.1,73.2,29.95,SW,225,5.3,8.6,74,0.00,,---,0.00,VWS V13.01,2013-06-14 13:13:00,
2013-06-14 09:18:00,82.3,73.3,29.95,North,349,3.4,7.3,74,0.00,,---,0.00,VWS V13.01,2013-06-14 13:18:00,
2013-06-14 09:23:00,82.4,73.4,29.95,West,277,6.0,7.7,74,0.00,,---,0.00,VWS V13.01,2013-06-14 13:23:00,
2013-06-14 09:28:00,82.7,73.9,29.95,SW,226,2.7,5.7,75,0.00,,---,0.00,VWS V13.01,2013-06-14 13:28:00,
2013-06-14 09:33:00,83.4,74.2,29.95,SW,215,1.3,3.9,74,0.00,,---,0.00,VWS V13.01,2013-06-14 13:33:00,
2013-06-14 09:38:00,83.5,73.9,29.95,West,280,8.2,10.1,73,0.00,,---,0.00,VWS V13.01,2013-06-14 13:38:00,
2013-06-14 09:43:00,83.5,73.4,29.95,NW,308,3.2,7.2,72,0.00,,---,0.00,VWS V13.01,2013-06-14 13:43:00,
2013-06-14 09:48:00,83.6,73.5,29.95,West,271,7.3,7.3,72,0.00,,---,0.00,VWS V13.01,2013-06-14 13:48:00,
2013-06-14 09:53:00,83.6,73.2,29.95,West,278,3.1,7.9,71,0.00,,---,0.00,VWS V13.01,2013-06-14 13:53:00,
2013-06-14 09:58:00,83.6,73.2,29.96,North,3,3.5,5.5,71,0.00,,---,0.00,VWS V13.01,2013-06-14 13:58:00,
2013-06-14 10:03:00,83.8,72.9,29.96,WNW,294,5.8,8.1,70,0.00,,---,0.00,VWS V13.01,2013-06-14 14:03:00,
2013-06-14 10:08:00,84.1,73.1,29.96,SW,222,4.8,8.8,70,0.00,,---,0.00,VWS V13.01,2013-06-14 14:08:00,
2013-06-14 10:13:00,84.1,72.3,29.95,West,264,8.0,8.8,68,0.00,,---,0.00,VWS V13.01,2013-06-14 14:13:00,
2013-06-14 10:18:00,84.3,73.4,29.95,West,263,3.3,3.8,70,0.00,,---,0.00,VWS V13.01,2013-06-14 14:18:00,
2013-06-14 10:23:00,84.7,72.9,29.96,North,359,5.1,5.9,68,0.00,,---,0.00,VWS V13.01,2013-06-14 14:23:00,
2013-06-14 10:28:00,84.9,72.7,29.96,WNW,291,5.2,7.0,67,0.00,,---,0.00,VWS V13.01,2013-06-14 14:28:00,
2013-06-14 10:33:00,85.3,73.0,29.95,WNW,291,2.5,5.7,67,0.00,,---,0.00,VWS V13.01,2013-06-14 14:33:00,
2013-06-14 10:38:00,85.3,71.6,29.96,West,277,6.5,9.7,64,0.00,,---,0.00,VWS V13.01,2013-06-14 14:38:00,
2013-06-14 10:43:00,85.4,72.8,29.96,NNW,329,4.9,7.3,66,0.00,,---,0.00,VWS V13.01,2013-06-14 14:43:00,
2013-06-14 10:48:00,85.5,71.9,29.96,WNW,298,4.3,10.1,64,0.00,,---,0.00,VWS V13.01,2013-06-14 14:48:00,
2013-06-14 10:53:00,86.0,72.8,29.95,NNW,330,4.8,8.6,65,0.00,,---,0.00,VWS V13.01,2013-06-14 14:53:00,
2013-06-14 10:58:00,85.9,72.1,29.95,WNW,298,3.4,9.3,64,0.00,,---,0.00,VWS V13.01,2013-06-14 14:58:00,
2013-06-14 11:03:00,86.4,72.4,29.95,NNW,329,2.7,7.5,63,0.00,,---,0.00,VWS V13.01,2013-06-14 15:03:00,
2013-06-14 11:08:00,87.1,72.6,29.95,WNW,301,3.0,5.6,62,0.00,,---,0.00,VWS V13.01,2013-06-14 15:08:00,
2013-06-14 11:13:00,87.3,71.8,29.95,NW,307,4.7,6.8,60,0.00,,---,0.00,VWS V13.01,2013-06-14 15:13:00,
2013-06-14 11:18:00,87.0,71.1,29.95,NNW,343,8.1,9.3,59,0.00,,---,0.00,VWS V13.01,2013-06-14 15:18:00,
2013-06-14 11:23:00,87.1,71.8,29.95,SSW,210,1.0,2.0,60,0.00,,---,0.00,VWS V13.01,2013-06-14 15:23:00,
2013-06-14 11:28:00,87.2,71.6,29.95,West,262,2.9,6.3,60,0.00,,---,0.00,VWS V13.01,2013-06-14 15:28:00,
2013-06-14 11:33:00,87.1,71.3,29.95,NNW,339,4.2,7.8,60,0.00,,---,0.00,VWS V13.01,2013-06-14 15:33:00,
2013-06-14 11:38:00,87.1,71.8,29.95,North,353,5.0,5.8,61,0.00,,---,0.00,VWS V13.01,2013-06-14 15:38:00,
2013-06-14 11:43:00,87.5,71.7,29.95,West,260,3.5,5.7,60,0.00,,---,0.00,VWS V13.01,2013-06-14 15:43:00,
2013-06-14 11:48:00,87.7,71.5,29.95,West,274,2.9,7.3,59,0.00,,---,0.00,VWS V13.01,2013-06-14 15:48:00,
2013-06-14 11:53:00,87.9,71.8,29.95,WNW,288,5.8,6.5,59,0.00,,---,0.00,VWS V13.01,2013-06-14 15:53:00,
2013-06-14 11:58:00,88.4,71.3,29.95,WSW,256,4.2,5.4,57,0.00,,---,0.00,VWS V13.01,2013-06-14 15:58:00,
2013-06-14 12:03:00,89.0,71.5,29.95,NW,305,2.1,8.4,56,0.00,,---,0.00,VWS V13.01,2013-06-14 16:03:00,
2013-06-14 12:08:00,89.3,71.3,29.95,North,352,3.4,7.3,56,0.00,,---,0.00,VWS V13.01,2013-06-14 16:08:00,
2013-06-14 12:13:00,89.2,71.9,29.94,North,11,2.7,5.5,57,0.00,,---,0.00,VWS V13.01,2013-06-14 16:13:00,
2013-06-14 12:18:00,88.9,70.9,29.94,NW,308,3.7,7.5,55,0.00,,---,0.00,VWS V13.01,2013-06-14 16:18:00,
2013-06-14 12:23:00,88.5,70.6,29.94,West,271,6.7,7.0,56,0.00,,---,0.00,VWS V13.01,2013-06-14 16:23:00,
2013-06-14 12:28:00,88.5,71.1,29.94,NNW,333,5.3,8.1,56,0.00,,---,0.00,VWS V13.01,2013-06-14 16:28:00,
2013-06-14 12:33:00,89.0,71.3,29.94,West,259,6.2,7.4,56,0.00,,---,0.00,VWS V13.01,2013-06-14 16:33:00,
2013-06-14 12:38:00,88.6,70.4,29.94,WNW,301,6.3,10.5,55,0.00,,---,0.00,VWS V13.01,2013-06-14 16:38:00,
2013-06-14 12:43:00,88.3,71.5,29.93,WNW,292,6.8,7.7,58,0.00,,---,0.00,VWS V13.01,2013-06-14 16:43:00,
2013-06-14 12:48:00,88.6,70.8,29.93,SW,214,2.7,9.8,56,0.00,,---,0.00,VWS V13.01,2013-06-14 16:48:00,
2013-06-14 12:53:00,88.7,71.4,29.93,NW,318,3.2,6.6,57,0.00,,---,0.00,VWS V13.01,2013-06-14 16:53:00,
2013-06-14 12:58:00,89.2,70.9,29.93,NW,305,8.3,9.4,55,0.00,,---,0.00,VWS V13.01,2013-06-14 16:58:00,
2013-06-14 13:03:00,89.5,70.6,29.93,WNW,297,6.6,7.0,54,0.00,,---,0.00,VWS V13.01,2013-06-14 17:03:00,
2013-06-14 13:08:00,89.6,70.6,29.93,West,273,4.3,5.7,54,0.00,,---,0.00,VWS V13.01,2013-06-14 17:08:00,
2013-06-14 13:13:00,89.3,70.2,29.93,South,190,6.4,11.6,53,0.00,,---,0.00,VWS V13.01,2013-06-14 17:13:00,
2013-06-14 13:18:00,89.8,71.2,29.92,West,278,1.8,5.3,54,0.00,,---,0.00,VWS V13.01,2013-06-14 17:18:00,
2013-06-14 13:23:00,90.0,72.1,29.92,NNW,345,5.3,6.8,56,0.00,,---,0.00,VWS V13.01,2013-06-14 17:23:00,
2013-06-14 13:28:00,90.3,70.4,29.92,North,7,2.8,6.8,52,0.00,,---,0.00,VWS V13.01,2013-06-14 17:28:00,
2013-06-14 13:33:00,90.3,70.6,29.92,NNW,333,7.5,9.3,53,0.00,,---,0.00,VWS V13.01,2013-06-14 17:33:00,
2013-06-14 13:38:00,90.4,68.9,29.92,NNW,342,7.0,7.8,50,0.00,,---,0.00,VWS V13.01,2013-06-14 17:38:00,
2013-06-14 13:43:00,90.9,69.5,29.92,NNE,13,4.5,4.8,50,0.00,,---,0.00,VWS V13.01,2013-06-14 17:43:00,
2013-06-14 13:48:00,91.2,69.8,29.92,West,270,7.1,7.1,50,0.00,,---,0.00,VWS V13.01,2013-06-14 17:48:00,
2013-06-14 13:53:00,91.6,69.4,29.91,SSW,212,2.1,5.1,48,0.00,,---,0.00,VWS V13.01,2013-06-14 17:53:00,
2013-06-14 13:58:00,91.2,70.1,29.91,WSW,250,3.7,7.6,50,0.00,,---,0.00,VWS V13.01,2013-06-14 17:58:00,
2013-06-14 14:03:00,91.3,69.5,29.91,NW,322,5.3,11.1,49,0.00,,---,0.00,VWS V13.01,2013-06-14 18:03:00,
2013-06-14 14:08:00,90.8,69.9,29.91,SW,231,3.2,6.8,50,0.00,,---,0.00,VWS V13.01,2013-06-14 18:08:00,
2013-06-14 14:13:00,90.7,70.6,29.91,WNW,288,2.1,6.2,52,0.00,,---,0.00,VWS V13.01,2013-06-14 18:13:00,
2013-06-14 14:18:00,90.7,69.9,29.90,North,354,3.5,7.3,51,0.00,,---,0.00,VWS V13.01,2013-06-14 18:18:00,
2013-06-14 14:23:00,91.1,70.2,29.90,North,350,2.9,3.7,51,0.00,,---,0.00,VWS V13.01,2013-06-14 18:23:00,
2013-06-14 14:28:00,91.1,70.2,29.89,West,278,7.3,7.3,50,0.00,,---,0.00,VWS V13.01,2013-06-14 18:28:00,
2013-06-14 14:33:00,90.7,69.5,29.89,WSW,257,2.3,7.3,50,0.00,,---,0.00,VWS V13.01,2013-06-14 18:33:00,
2013-06-14 14:38:00,90.9,70.3,29.89,WSW,239,1.4,4.1,51,0.00,,---,0.00,VWS V13.01,2013-06-14 18:38:00,
2013-06-14 14:43:00,90.7,70.2,29.89,NNE,15,1.4,5.2,51,0.00,,---,0.00,VWS V13.01,2013-06-14 18:43:00,
2013-06-14 14:48:00,91.0,72.4,29.89,SSE,167,3.3,5.7,55,0.00,,---,0.00,VWS V13.01,2013-06-14 18:48:00,
2013-06-14 14:53:00,91.3,72.8,29.89,SSW,200,8.7,9.8,55,0.00,,---,0.00,VWS V13.01,2013-06-14 18:53:00,
2013-06-14 14:58:00,91.2,73.7,29.89,ESE,108,1.8,5.8,57,0.00,,---,0.00,VWS V13.01,2013-06-14 18:58:00,
2013-06-14 15:03:00,90.9,73.8,29.88,South,181,4.7,8.0,57,0.00,,---,0.00,VWS V13.01,2013-06-14 19:03:00,
2013-06-14 15:08:00,90.3,74.3,29.88,ESE,117,2.1,6.1,60,0.00,,---,0.00,VWS V13.01,2013-06-14 19:08:00,
2013-06-14 15:13:00,89.6,74.5,29.88,WSW,249,4.6,10.8,61,0.00,,---,0.00,VWS V13.01,2013-06-14 19:13:00,
2013-06-14 15:18:00,89.2,74.7,29.88,SE,127,0.9,4.5,62,0.00,,---,0.00,VWS V13.01,2013-06-14 19:18:00,
2013-06-14 15:23:00,87.9,73.4,29.88,SSE,152,6.5,11.2,62,0.00,,---,0.00,VWS V13.01,2013-06-14 19:23:00,
2013-06-14 15:28:00,88.5,74.8,29.88,South,184,3.4,8.1,64,0.00,,---,0.00,VWS V13.01,2013-06-14 19:28:00,
2013-06-14 15:33:00,88.0,74.1,29.88,South,187,7.1,7.3,64,0.00,,---,0.00,VWS V13.01,2013-06-14 19:33:00,
2013-06-14 15:38:00,87.5,74.6,29.88,SSE,160,4.9,7.3,66,0.00,,---,0.00,VWS V13.01,2013-06-14 19:38:00,
2013-06-14 15:43:00,87.1,74.7,29.88,ENE,59,1.2,6.5,67,0.00,,---,0.00,VWS V13.01,2013-06-14 19:43:00,
2013-06-14 15:48:00,87.4,74.6,29.88,SE,136,2.1,4.3,66,0.00,,---,0.00,VWS V13.01,2013-06-14 19:48:00,
2013-06-14 15:53:00,87.6,75.8,29.87,WSW,238,4.0,7.0,68,0.00,,---,0.00,VWS V13.01,2013-06-14 19:53:00,
2013-06-14 15:58:00,88.2,75.3,29.87,SSW,211,8.0,8.0,66,0.00,,---,0.00,VWS V13.01,2013-06-14 19:58:00,
2013-06-14 16:03:00,87.8,74.5,29.87,SW,219,3.0,8.8,65,0.00,,---,0.00,VWS V13.01,2013-06-14 20:03:00,
2013-06-14 16:08:00,86.9,73.7,29.88,WNW,294,3.8,7.0,65,0.00,,---,0.00,VWS V13.01,2013-06-14 20:08:00,
2013-06-14 16:13:00,86.5,74.7,29.88,SW,215,1.9,4.3,68,0.01,,---,0.01,VWS V13.01,2013-06-14 20:13:00,
2013-06-14 16:18:00,86.0,76.8,29.88,East,89,5.9,7.4,74,0.16,,---,0.16,VWS V13.01,2013-06-14 20:18:00,
2013-06-14 16:23:00,84.4,78.2,29.89,SSE,149,3.4,5.4,82,0.22,,---,0.22,VWS V13.01,2013-06-14 20:23:00,
2013-06-14 16:28:00,82.5,77.2,29.89,SE,143,5.8,10.7,84,0.23,,---,0.23,VWS V13.01,2013-06-14 20:28:00,
2013-06-14 16:33:00,81.0,75.5,29.89,East,87,6.6,8.6,83,0.23,,---,0.23,VWS V13.01,2013-06-14 20:33:00,
2013-06-14 16:38:00,80.5,75.1,29.89,SE,138,3.5,9.3,84,0.24,,---,0.24,VWS V13.01,2013-06-14 20:38:00,
2013-06-14 16:43:00,79.4,74.9,29.89,SE,128,4.5,8.6,86,0.38,,---,0.38,VWS V13.01,2013-06-14 20:43:00,
2013-06-14 16:48:00,79.2,76.2,29.88,ESE,120,3.5,7.1,91,0.46,,---,0.46,VWS V13.01,2013-06-14 20:48:00,
2013-06-14 16:53:00,79.5,76.5,29.89,South,176,2.9,4.7,91,0.48,,---,0.48,VWS V13.01,2013-06-14 20:53:00,
2013-06-14 16:58:00,79.3,76.4,29.89,SSE,155,3.7,8.5,91,0.48,,---,0.48,VWS V13.01,2013-06-14 20:58:00,
2013-06-14 17:03:00,79.5,76.7,29.89,SSE,148,7.1,9.1,91,0.48,,---,0.48,VWS V13.01,2013-06-14 21:03:00,
2013-06-14 17:08:00,79.5,75.9,29.88,South,174,3.3,12.9,89,0.48,,---,0.48,VWS V13.01,2013-06-14 21:08:00,
2013-06-14 17:13:00,79.4,74.1,29.88,South,176,4.4,9.9,84,0.48,,---,0.48,VWS V13.01,2013-06-14 21:13:00,
2013-06-14 17:18:00,79.8,74.8,29.87,SSE,163,5.0,16.0,85,0.37,,---,0.48,VWS V13.01,2013-06-14 21:18:00,
2013-06-14 17:23:00,79.9,72.7,29.87,SSE,158,6.5,9.4,79,0.27,,---,0.48,VWS V13.01,2013-06-14 21:23:00,
2013-06-14 17:28:00,79.9,72.5,29.87,SE,131,6.2,9.4,78,0.25,,---,0.48,VWS V13.01,2013-06-14 21:28:00,
2013-06-14 17:33:00,80.1,73.8,29.87,SE,141,5.3,9.2,81,0.25,,---,0.48,VWS V13.01,2013-06-14 21:33:00,
2013-06-14 17:38:00,80.3,74.7,29.87,SSE,167,4.5,7.1,83,0.25,,---,0.48,VWS V13.01,2013-06-14 21:38:00,
2013-06-14 17:43:00,80.4,75.3,29.87,SSE,163,4.5,9.1,84,0.12,,---,0.48,VWS V13.01,2013-06-14 21:43:00,
2013-06-14 17:48:00,81.0,75.8,29.88,SSW,205,3.1,6.4,84,0.03,,---,0.48,VWS V13.01,2013-06-14 21:48:00,
2013-06-14 17:53:00,81.2,75.7,29.87,South,170,4.8,9.5,83,0.01,,---,0.48,VWS V13.01,2013-06-14 21:53:00,
2013-06-14 17:58:00,81.3,75.5,29.87,SE,138,7.2,7.3,83,0.00,,---,0.48,VWS V13.01,2013-06-14 21:58:00,
2013-06-14 18:03:00,81.4,75.6,29.87,South,187,3.1,4.5,83,0.00,,---,0.48,VWS V13.01,2013-06-14 22:03:00,
2013-06-14 18:08:00,81.6,76.0,29.88,North,354,2.5,2.9,83,0.00,,---,0.48,VWS V13.01,2013-06-14 22:08:00,
2013-06-14 18:13:00,81.3,75.1,29.89,NNE,13,1.7,2.2,81,0.02,,---,0.51,VWS V13.01,2013-06-14 22:13:00,
2013-06-14 18:18:00,80.5,74.6,29.89,NNW,343,3.2,4.8,82,0.06,,---,0.55,VWS V13.01,2013-06-14 22:18:00,
2013-06-14 18:23:00,78.4,73.9,29.89,ENE,76,7.5,8.5,86,0.12,,---,0.61,VWS V13.01,2013-06-14 22:23:00,
2013-06-14 18:28:00,78.0,74.2,29.89,NE,49,2.7,4.8,88,0.15,,---,0.63,VWS V13.01,2013-06-14 22:28:00,
2013-06-14 18:33:00,77.5,74.4,29.90,NE,53,2.2,3.7,90,0.21,,---,0.70,VWS V13.01,2013-06-14 22:33:00,
2013-06-14 18:38:00,77.2,74.6,29.89,ESE,105,3.5,3.9,92,0.30,,---,0.78,VWS V13.01,2013-06-14 22:38:00,
2013-06-14 18:43:00,77.1,75.0,29.89,ESE,120,5.3,8.0,93,0.31,,---,0.79,VWS V13.01,2013-06-14 22:43:00,
2013-06-14 18:48:00,77.2,75.3,29.89,ESE,111,0.5,3.1,94,0.31,,---,0.79,VWS V13.01,2013-06-14 22:48:00,
2013-06-14 18:53:00,77.4,75.3,29.90,East,83,0.0,0.0,93,0.31,,---,0.79,VWS V13.01,2013-06-14 22:53:00,
2013-06-14 18:58:00,77.2,75.0,29.92,West,277,3.2,3.9,93,0.31,,---,0.79,VWS V13.01,2013-06-14 22:58:00,
2013-06-14 19:03:00,77.3,75.2,29.92,NW,326,2.8,3.0,93,0.31,,---,0.79,VWS V13.01,2013-06-14 23:03:00,
2013-06-14 19:08:00,77.4,75.1,29.91,West,277,3.8,5.9,93,0.31,,---,0.79,VWS V13.01,2013-06-14 23:08:00,
2013-06-14 19:13:00,77.0,74.1,29.92,WNW,302,0.0,1.9,91,0.29,,---,0.79,VWS V13.01,2013-06-14 23:13:00,
2013-06-14 19:18:00,76.2,71.8,29.92,NW,311,1.1,4.7,86,0.26,,---,0.79,VWS V13.01,2013-06-14 23:18:00,
2013-06-14 19:23:00,76.2,72.2,29.93,SE,145,2.1,3.0,87,0.20,,---,0.79,VWS V13.01,2013-06-14 23:23:00,
2013-06-14 19:28:00,76.1,71.6,29.94,West,266,4.5,4.5,86,0.16,,---,0.79,VWS V13.01,2013-06-14 23:28:00,
2013-06-14 19:33:00,75.8,71.0,29.93,West,269,1.7,5.7,85,0.11,,---,0.79,VWS V13.01,2013-06-14 23:33:00,
2013-06-14 19:39:00,75.9,71.2,29.92,NNE,15,0.4,0.8,86,0.03,,---,0.79,VWS V13.01,2013-06-14 23:39:00,
2013-06-14 19:44:00,76.3,71.6,29.92,ESE,114,1.8,2.5,86,0.01,,---,0.79,VWS V13.01,2013-06-14 23:44:00,
2013-06-14 19:49:00,76.2,71.9,29.94,ESE,108,0.8,1.9,87,0.00,,---,0.79,VWS V13.01,2013-06-14 23:49:00,
2013-06-14 19:54:00,76.4,72.2,29.94,ESE,117,0.0,0.0,87,0.00,,---,0.79,VWS V13.01,2013-06-14 23:54:00,
2013-06-14 19:59:00,76.5,72.2,29.94,SSE,156,0.0,0.0,87,0.00,,---,0.79,VWS V13.01,2013-06-14 23:59:00,
2013-06-14 20:04:00,76.8,72.6,29.95,ESE,105,1.7,2.7,87,0.00,,---,0.79,VWS V13.01,2013-06-15 00:04:00,
2013-06-14 20:09:00,76.8,72.6,29.95,East,86,0.0,0.0,87,0.00,,---,0.79,VWS V13.01,2013-06-15 00:09:00,
2013-06-14 20:14:00,76.9,72.8,29.94,South,191,2.4,5.1,87,0.00,,---,0.79,VWS V13.01,2013-06-15 00:14:00,
2013-06-14 20:19:00,77.1,73.6,29.95,SSE,163,2.2,5.9,89,0.00,,---,0.79,VWS V13.01,2013-06-15 00:19:00,
2013-06-14 20:24:00,77.2,73.6,29.94,South,173,1.1,3.2,89,0.00,,---,0.79,VWS V13.01,2013-06-15 00:24:00,
2013-06-14 20:29:00,77.2,73.6,29.93,SSW,194,1.7,2.1,89,0.00,,---,0.79,VWS V13.01,2013-06-15 00:29:00,
2013-06-14 20:34:00,77.2,73.7,29.94,ESE,104,0.0,0.2,89,0.00,,---,0.79,VWS V13.01,2013-06-15 00:34:00,
2013-06-14 20:39:00,77.3,74.0,29.94,SE,131,2.4,2.6,90,0.00,,---,0.79,VWS V13.01,2013-06-15 00:39:00,
2013-06-14 20:44:00,77.2,73.9,29.93,SSW,194,3.4,5.5,90,0.00,,---,0.79,VWS V13.01,2013-06-15 00:44:00,
2013-06-14 20:49:00,77.1,73.7,29.93,South,190,3.4,3.4,89,0.00,,---,0.79,VWS V13.01,2013-06-15 00:49:00,
2013-06-14 20:54:00,77.1,73.6,29.93,SSE,165,1.7,3.2,89,0.00,,---,0.79,VWS V13.01,2013-06-15 00:54:00,
2013-06-14 20:59:00,77.2,73.7,29.93,South,172,0.7,1.7,89,0.00,,---,0.79,VWS V13.01,2013-06-15 00:59:00,
2013-06-14 21:04:00,77.1,73.5,29.92,South,180,4.8,4.8,89,0.00,,---,0.79,VWS V13.01,2013-06-15 01:04:00,
2013-06-14 21:09:00,77.0,73.4,29.93,South,176,3.0,3.0,89,0.00,,---,0.79,VWS V13.01,2013-06-15 01:09:00,
2013-06-14 21:14:00,76.9,73.4,29.93,SSE,167,0.9,1.3,89,0.00,,---,0.79,VWS V13.01,2013-06-15 01:14:00,
2013-06-14 21:19:00,76.8,73.3,29.93,South,186,3.7,4.0,89,0.00,,---,0.79,VWS V13.01,2013-06-15 01:19:00,
2013-06-14 21:24:00,76.8,73.4,29.93,SW,231,4.9,4.9,89,0.00,,---,0.79,VWS V13.01,2013-06-15 01:24:00,
2013-06-14 21:29:00,76.7,73.3,29.93,SSW,195,4.0,4.6,89,0.00,,---,0.79,VWS V13.01,2013-06-15 01:29:00,
2013-06-14 21:34:00,77.0,73.7,29.94,SSE,155,1.7,4.2,90,0.00,,---,0.79,VWS V13.01,2013-06-15 01:34:00,
2013-06-14 21:39:00,76.7,73.4,29.94,South,183,0.0,1.2,90,0.00,,---,0.79,VWS V13.01,2013-06-15 01:39:00,
2013-06-14 21:44:00,76.9,73.6,29.94,SSE,156,0.0,0.0,90,0.00,,---,0.79,VWS V13.01,2013-06-15 01:44:00,
2013-06-14 21:49:00,76.9,73.6,29.94,SSE,149,0.8,2.5,90,0.00,,---,0.79,VWS V13.01,2013-06-15 01:49:00,
2013-06-14 21:54:00,76.9,73.6,29.95,SSE,162,1.0,3.4,90,0.00,,---,0.79,VWS V13.01,2013-06-15 01:54:00,
2013-06-14 21:59:00,76.7,73.4,29.95,SSW,202,0.0,0.0,90,0.00,,---,0.79,VWS V13.01,2013-06-15 01:59:00,
2013-06-14 22:04:00,76.9,73.6,29.95,SSW,202,0.0,0.0,90,0.00,,---,0.79,VWS V13.01,2013-06-15 02:04:00,
2013-06-14 22:09:00,76.8,73.5,29.95,SSW,202,0.0,0.0,90,0.00,,---,0.79,VWS V13.01,2013-06-15 02:09:00,
2013-06-14 22:14:00,76.8,73.6,29.96,SSW,202,0.0,0.0,90,0.00,,---,0.79,VWS V13.01,2013-06-15 02:14:00,
2013-06-14 22:19:00,76.7,73.5,29.96,SSW,202,0.0,0.0,90,0.00,,---,0.79,VWS V13.01,2013-06-15 02:19:00,
2013-06-14 22:24:00,76.7,73.5,29.96,SSW,202,0.0,0.0,90,0.00,,---,0.79,VWS V13.01,2013-06-15 02:24:00,
2013-06-14 22:29:00,76.7,73.5,29.95,WSW,249,0.0,0.0,90,0.00,,---,0.79,VWS V13.01,2013-06-15 02:29:00,
2013-06-14 22:34:00,76.7,73.5,29.95,WSW,243,2.1,2.5,90,0.00,,---,0.79,VWS V13.01,2013-06-15 02:34:00,
2013-06-14 22:39:00,76.9,73.8,29.95,WNW,291,0.9,2.9,90,0.00,,---,0.79,VWS V13.01,2013-06-15 02:39:00,
2013-06-14 22:45:00,76.8,73.7,29.95,WSW,249,2.1,2.4,90,0.00,,---,0.79,VWS V13.01,2013-06-15 02:45:00,
2013-06-14 22:50:00,76.9,73.7,29.95,SW,229,0.0,0.0,90,0.00,,---,0.79,VWS V13.01,2013-06-15 02:50:00,
2013-06-14 22:55:00,76.9,73.7,29.95,SW,229,0.0,0.0,90,0.00,,---,0.79,VWS V13.01,2013-06-15 02:55:00,
2013-06-14 23:00:00,76.9,73.7,29.95,SSE,165,1.2,1.5,90,0.00,,---,0.79,VWS V13.01,2013-06-15 03:00:00,
2013-06-14 23:05:00,77.0,73.9,29.95,SSW,194,0.0,0.0,90,0.00,,---,0.79,VWS V13.01,2013-06-15 03:05:00,
2013-06-14 23:10:00,76.9,73.8,29.95,SSW,194,0.0,0.0,90,0.00,,---,0.79,VWS V13.01,2013-06-15 03:10:00,
2013-06-14 23:15:00,76.8,73.8,29.96,SSW,194,0.0,0.0,90,0.00,,---,0.79,VWS V13.01,2013-06-15 03:15:00,
2013-06-14 23:20:00,76.9,73.9,29.96,SSW,194,0.0,0.0,90,0.00,,---,0.79,VWS V13.01,2013-06-15 03:20:00,
2013-06-14 23:25:00,76.8,73.8,29.96,WSW,256,1.5,1.6,90,0.00,,---,0.79,VWS V13.01,2013-06-15 03:25:00,
2013-06-14 23:30:00,76.8,73.9,29.96,SSW,194,0.0,0.0,91,0.00,,---,0.79,VWS V13.01,2013-06-15 03:30:00,
2013-06-14 23:35:00,76.8,73.9,29.96,SSW,205,0.0,0.0,91,0.00,,---,0.79,VWS V13.01,2013-06-15 03:35:00,
2013-06-14 23:40:00,77.0,74.1,29.96,SW,214,0.5,0.5,91,0.00,,---,0.79,VWS V13.01,2013-06-15 03:40:00,
2013-06-14 23:45:00,77.0,74.1,29.96,SSW,210,0.0,0.0,91,0.00,,---,0.79,VWS V13.01,2013-06-15 03:45:00,
2013-06-14 23:50:00,76.8,73.9,29.96,SSW,212,0.0,0.0,91,0.00,,---,0.79,VWS V13.01,2013-06-15 03:50:00,
2013-06-14 23:55:00,76.9,74.0,29.96,SSW,212,0.0,0.0,91,0.00,,---,0.79,VWS V13.01,2013-06-15 03:55:00,